Time;durP1;ratioP1;P1;durP2;ratioP2;P2;SDS_P1;SDS_P2;PMS_P1;PMS_P2;Temp;Humidity;BMP_temperature;BMP_pressure;BME280_temperature;BME280_humidity;BME280_pressure;Samples;Min_cycle;Max_cycle;Signal;HPM_P1;HPM_P2
2021/05/15 11:55:39;;;;;;;11.15;0.90;;;;;;;;;;5132464;27;20432;-69
2021/05/15 11:58:05;;;;;;;44.85;2.60;;;;;;;;;;5130145;28;20027;-70
2021/05/15 12:00:31;;;;;;;12.00;1.08;;;;;;;;;;5130481;28;20027;-72
2021/05/15 12:02:57;;;;;;;5.18;0.90;;;;;;;;;;5130244;28;20015;-67
2021/05/15 12:05:23;;;;;;;8.82;1.45;;;;;;;;;;5131539;27;20103;-70
2021/05/15 12:07:50;;;;;;;2.72;0.85;;;;;;;;;;5131440;27;20072;-69
2021/05/15 12:10:17;;;;;;;7.85;1.00;;;;;;;;;;5130195;28;20368;-73
2021/05/15 12:12:53;;;;;;;11.32;0.95;;;;;;;;;;5130137;28;20034;-73
2021/05/15 12:15:19;;;;;;;5.55;0.93;;;;;;;;;;5113153;28;20402;-71
2021/05/15 12:17:45;;;;;;;5.63;1.27;;;;;;;;;;5130007;28;20421;-81
2021/05/15 12:20:11;;;;;;;2.75;0.98;;;;;;;;;;5112832;28;20071;-70
2021/05/15 12:22:37;;;;;;;7.55;0.93;;;;;;;;;;5130021;28;20023;-69
2021/05/15 12:25:10;;;;;;;7.85;0.90;;;;;;;;;;5131239;27;20106;-73
2021/05/15 12:27:36;;;;;;;8.13;0.98;;;;;;;;;;5112790;28;20058;-72
2021/05/15 12:30:05;;;;;;;4.53;0.85;;;;;;;;;;5130237;28;20482;-68
2021/05/15 12:32:32;;;;;;;6.35;1.10;;;;;;;;;;5131105;27;20019;-73
2021/05/15 12:34:59;;;;;;;20.67;1.45;;;;;;;;;;5132253;27;20471;-69
2021/05/15 12:37:32;;;;;;;8.88;1.20;;;;;;;;;;5131159;27;20029;-69
2021/05/15 12:40:01;;;;;;;11.70;1.30;;;;;;;;;;5131188;27;20027;-70
2021/05/15 12:42:30;;;;;;;6.85;1.40;;;;;;;;;;5130787;27;20505;-69
2021/05/15 12:45:06;;;;;;;8.10;0.80;;;;;;;;;;5130610;27;20023;-69
2021/05/15 12:47:35;;;;;;;9.35;1.02;;;;;;;;;;5130742;27;20372;-69
2021/05/15 12:50:01;;;;;;;6.95;0.95;;;;;;;;;;5130977;27;20072;-69
2021/05/15 12:52:27;;;;;;;5.50;1.00;;;;;;;;;;5130509;27;20023;-69
2021/05/15 12:54:53;;;;;;;12.93;0.98;;;;;;;;;;5130432;27;20032;-69
2021/05/15 12:57:19;;;;;;;10.85;1.33;;;;;;;;;;5129211;27;20368;-69
2021/05/15 12:59:46;;;;;;;1.90;0.73;;;;;;;;;;5130809;27;20068;-69
2021/05/15 13:02:20;;;;;;;1.80;0.90;;;;;;;;;;5129261;28;20039;-69
2021/05/15 13:04:55;;;;;;;8.43;0.95;;;;;;;;;;5130154;27;20020;-69
2021/05/15 13:07:34;;;;;;;4.95;0.82;;;;;;;;;;5116659;28;20098;-69
2021/05/15 13:10:10;;;;;;;2.00;0.93;;;;;;;;;;5116595;28;20028;-69
2021/05/15 13:12:37;;;;;;;4.00;0.88;;;;;;;;;;5116467;28;20058;-69
2021/05/15 13:15:04;;;;;;;2.88;0.70;;;;;;;;;;5116665;28;20028;-69
2021/05/15 13:17:29;;;;;;;4.93;0.90;;;;;;;;;;5116404;28;20032;-69
2021/05/15 13:19:55;;;;;;;2.97;1.20;;;;;;;;;;5116584;28;20027;-69
2021/05/15 13:22:21;;;;;;;2.47;1.10;;;;;;;;;;5116316;28;20110;-69
2021/05/15 13:24:47;;;;;;;4.35;1.00;;;;;;;;;;5116225;28;20356;-69
2021/05/15 13:27:13;;;;;;;2.08;0.80;;;;;;;;;;5116268;28;20483;-69
2021/05/15 13:29:40;;;;;;;4.15;0.73;;;;;;;;;;5116528;28;20034;-69
2021/05/15 13:32:06;;;;;;;1.98;0.70;;;;;;;;;;5116157;28;20030;-69
2021/05/15 13:34:32;;;;;;;2.05;0.82;;;;;;;;;;5111760;22;20098;-64
2021/05/15 13:37:01;;;;;;;1.77;0.75;;;;;;;;;;5075460;28;20029;-64
2021/05/15 13:39:27;;;;;;;2.17;1.15;;;;;;;;;;5075448;28;20134;-64
2021/05/15 13:41:53;;;;;;;3.40;0.65;;;;;;;;;;5075349;28;20028;-64
2021/05/15 13:44:20;;;;;;;4.72;1.10;;;;;;;;;;5087636;28;20024;-64
2021/05/15 13:46:46;;;;;;;1.55;0.80;;;;;;;;;;5095491;28;20066;-64
2021/05/15 13:49:11;;;;;;;2.75;0.88;;;;;;;;;;5095251;28;20032;-64
2021/05/15 13:51:38;;;;;;;1.65;0.50;;;;;;;;;;5095623;28;20020;-64
2021/05/15 14:07:48;;;;;;;31.15;2.80;;;;;;;;;;5132468;27;20346;-66
2021/05/15 14:10:14;;;;;;;14.65;1.50;;;;;;;;;;5131902;28;20084;-69
2021/05/15 14:12:40;;;;;;;15.25;2.05;;;;;;;;;;5131505;27;20076;-67
2021/05/15 14:15:07;;;;;;;22.48;1.80;;;;;;;;;;5130256;28;20027;-64
2021/05/15 14:17:33;;;;;;;15.73;1.93;;;;;;;;;;5131437;27;20072;-64
2021/05/15 14:20:00;;;;;;;12.65;1.38;;;;;;;;;;5132056;27;20023;-67
2021/05/15 14:22:27;;;;;;;8.30;1.50;;;;;;;;;;5130129;27;20020;-66
2021/05/15 14:24:53;;;;;;;15.93;1.50;;;;;;;;;;5131326;27;20394;-65
2021/05/15 14:27:21;;;;;;;12.70;1.75;;;;;;;;;;5131295;27;20028;-67
2021/05/15 14:29:47;;;;;;;4.85;1.30;;;;;;;;;;5131627;27;20513;-70
2021/05/15 14:32:13;;;;;;;13.43;1.50;;;;;;;;;;5131523;27;20027;-68
2021/05/15 14:34:39;;;;;;;14.10;1.83;;;;;;;;;;5131254;27;20553;-71
2021/05/15 14:37:05;;;;;;;11.35;1.33;;;;;;;;;;5131078;27;20020;-73
2021/05/15 14:39:31;;;;;;;13.77;2.20;;;;;;;;;;5131258;27;20483;-73
2021/05/15 14:41:57;;;;;;;8.98;1.67;;;;;;;;;;5131825;27;20102;-72
2021/05/15 14:44:23;;;;;;;10.00;1.23;;;;;;;;;;5129962;27;20027;-77
2021/05/15 14:46:49;;;;;;;13.45;1.25;;;;;;;;;;5130512;28;20023;-78
2021/05/15 14:49:15;;;;;;;7.07;1.08;;;;;;;;;;5130187;27;20016;-78
2021/05/15 14:51:41;;;;;;;4.68;1.30;;;;;;;;;;5131820;27;20467;-76
2021/05/15 14:54:08;;;;;;;5.75;1.20;;;;;;;;;;5131224;27;20387;-80
2021/05/15 14:56:36;;;;;;;13.07;1.92;;;;;;;;;;5130415;27;20027;-80
2021/05/15 14:59:02;;;;;;;11.48;1.70;;;;;;;;;;5131915;27;20019;-80
2021/05/15 15:01:28;;;;;;;17.73;1.52;;;;;;;;;;5131443;27;20083;-80
2021/05/15 15:03:55;;;;;;;19.58;1.80;;;;;;;;;;5131512;27;20031;-80
2021/05/15 15:06:21;;;;;;;20.67;1.75;;;;;;;;;;5129637;28;20141;-80
2021/05/15 15:08:47;;;;;;;15.13;1.60;;;;;;;;;;5131330;27;20062;-80
2021/05/15 15:11:13;;;;;;;9.98;1.63;;;;;;;;;;5131847;27;20385;-80
2021/05/15 15:13:39;;;;;;;12.52;1.50;;;;;;;;;;5131568;27;20019;-80
2021/05/15 15:16:05;;;;;;;15.48;2.35;;;;;;;;;;5131198;27;20100;-80
2021/05/15 15:18:32;;;;;;;9.90;1.55;;;;;;;;;;5121286;27;20028;-80
2021/05/15 15:20:58;;;;;;;5.55;1.40;;;;;;;;;;5117609;28;20051;-80
2021/05/15 15:23:24;;;;;;;9.73;1.60;;;;;;;;;;5117321;28;20034;-80
2021/05/15 15:25:50;;;;;;;14.13;1.55;;;;;;;;;;5117791;28;20020;-80
2021/05/15 15:28:17;;;;;;;11.98;1.58;;;;;;;;;;5116989;28;20143;-80
2021/05/15 15:30:43;;;;;;;15.32;2.33;;;;;;;;;;5115776;28;20076;-80
2021/05/15 15:33:11;;;;;;;12.88;1.48;;;;;;;;;;5116830;27;20034;-80
2021/05/15 15:35:37;;;;;;;14.98;2.38;;;;;;;;;;5116832;28;20098;-80
2021/05/15 15:38:03;;;;;;;11.90;1.45;;;;;;;;;;5116935;28;20020;-80
2021/05/15 15:40:29;;;;;;;9.55;1.40;;;;;;;;;;5116818;28;20027;-80
2021/05/15 15:42:55;;;;;;;7.68;1.23;;;;;;;;;;5116810;28;20068;-81
2021/05/15 15:45:21;;;;;;;86.45;5.60;;;;;;;;;;5116789;28;20383;-76
2021/05/15 15:47:47;;;;;;;44.35;3.97;;;;;;;;;;5117100;28;20027;-76
2021/05/15 15:50:13;;;;;;;36.95;2.78;;;;;;;;;;5116410;28;20027;-75
2021/05/15 15:52:39;;;;;;;28.08;2.67;;;;;;;;;;5116371;28;20027;-76
2021/05/15 15:55:07;;;;;;;24.02;4.18;;;;;;;;;;5117000;28;20028;-76
2021/05/15 15:57:33;;;;;;;25.10;3.70;;;;;;;;;;5115280;28;20020;-76
2021/05/15 15:59:58;;;;;;;32.05;2.55;;;;;;;;;;5117068;28;20420;-76
2021/05/15 16:02:24;;;;;;;29.35;2.38;;;;;;;;;;5116476;28;20106;-76
2021/05/15 16:04:50;;;;;;;27.63;2.53;;;;;;;;;;5116309;28;20016;-76
2021/05/15 16:07:16;;;;;;;17.48;2.40;;;;;;;;;;5116199;28;20490;-76
2021/05/15 16:09:42;;;;;;;20.02;2.17;;;;;;;;;;5116451;28;20375;-76
2021/05/15 16:12:09;;;;;;;20.35;2.38;;;;;;;;;;5116419;28;20028;-75
2021/05/15 16:14:35;;;;;;;14.80;2.53;;;;;;;;;;5116406;28;20023;-75
2021/05/15 16:17:02;;;;;;;31.70;2.65;;;;;;;;;;5114415;28;20053;-74
2021/05/15 16:19:28;;;;;;;;;;;;;;;;;;5114877;28;20026;-69
2021/05/15 16:21:54;;;;;;;;;;;;;;;;;;5115953;28;20317;-63
2021/05/15 16:25:07;;;;;;;;;;;;;;;;;;5091270;27;19919;-76
2021/05/15 16:27:33;;;;;;;;;;;;;;;;;;5091257;28;19995;-74
2021/05/15 16:29:59;;;;;;;;;;;;;;;;;;5091124;28;19908;-71
2021/05/15 16:32:24;;;;;;;;;;;;;;;;;;5091032;28;19909;-74
2021/05/15 16:34:50;;;;;;;;;;;;;;;;;;5090984;28;19912;-74
2021/05/15 16:37:16;;;;;;;;;;;;;;;;;;5091072;28;19943;-72
2021/05/15 16:39:42;;;;;;;;;;;;;;;;;;5091058;28;20326;-74
2021/05/15 16:42:10;;;;;;;;;;;;;;;;;;5091366;28;19915;-74
2021/05/15 16:46:36;;;;;;;;;;;;;;;;;;5092410;27;19913;-73
2021/05/15 16:49:02;;;;;;;;;;;;;;;;;;5091475;28;20024;-71
2021/05/15 17:23:22;;;;;;;2.05;1.10;;;;;;;;;;5152885;27;20307;-68
2021/05/15 17:25:48;;;;;;;5.03;1.20;;;;;;;;;;5131867;28;20024;-69
2021/05/15 17:28:14;;;;;;;4.90;1.33;;;;;;;;;;5131456;27;20478;-65
2021/05/15 17:30:42;;;;;;;4.57;1.02;;;;;;;;;;5131524;27;20077;-70
2021/05/15 17:33:08;;;;;;;4.93;1.38;;;;;;;;;;5130106;28;20031;-69
2021/05/15 17:35:34;;;;;;;25.33;2.10;;;;;;;;;;5131386;27;20024;-67
2021/05/15 17:38:00;;;;;;;28.58;2.03;;;;;;;;;;5131436;27;20469;-68
2021/05/15 17:40:26;;;;;;;14.63;1.42;;;;;;;;;;5131311;27;20028;-73
2021/05/15 17:42:52;;;;;;;29.35;3.13;;;;;;;;;;5130319;28;20037;-68
2021/05/15 17:45:18;;;;;;;22.60;1.70;;;;;;;;;;5131497;27;20479;-69
2021/05/15 17:47:44;;;;;;;25.13;1.58;;;;;;;;;;5131116;28;20055;-69
2021/05/15 17:50:11;;;;;;;34.83;1.65;;;;;;;;;;5129721;28;20030;-69
2021/05/15 17:52:37;;;;;;;15.70;1.60;;;;;;;;;;5129904;28;20042;-69
2021/05/15 17:55:04;;;;;;;15.60;1.77;;;;;;;;;;5130906;27;20031;-68
2021/05/15 17:57:30;;;;;;;9.13;1.58;;;;;;;;;;5129662;28;20118;-69
2021/05/15 17:59:58;;;;;;;12.32;1.95;;;;;;;;;;5131039;27;20059;-69
2021/05/15 18:02:24;;;;;;;14.98;1.92;;;;;;;;;;5129584;28;20023;-69
2021/05/15 18:04:54;;;;;;;10.32;1.40;;;;;;;;;;5130796;28;20027;-69
2021/05/15 18:07:23;;;;;;;9.60;1.65;;;;;;;;;;5129449;28;20065;-69
2021/05/15 18:09:49;;;;;;;13.43;1.67;;;;;;;;;;5130667;27;20020;-69
2021/05/15 18:12:15;;;;;;;7.13;1.17;;;;;;;;;;5131134;27;20062;-69
2021/05/15 18:14:42;;;;;;;10.93;1.55;;;;;;;;;;5130630;27;20032;-68
2021/05/15 18:17:08;;;;;;;7.40;1.70;;;;;;;;;;5129225;27;20027;-68
2021/05/15 18:19:35;;;;;;;8.05;1.40;;;;;;;;;;5130504;27;20042;-69
2021/05/15 18:22:01;;;;;;;12.38;1.98;;;;;;;;;;5130292;28;20028;-69
2021/05/15 18:24:28;;;;;;;4.95;1.13;;;;;;;;;;5130953;27;20020;-67
2021/05/15 18:26:57;;;;;;;2.58;0.93;;;;;;;;;;5130488;27;20015;-66
2021/05/15 18:29:23;;;;;;;8.43;1.30;;;;;;;;;;5129043;28;20020;-67
2021/05/15 18:31:49;;;;;;;7.55;1.50;;;;;;;;;;5130290;27;20027;-67
2021/05/15 18:34:16;;;;;;;4.40;1.02;;;;;;;;;;5119244;28;20047;-66
2021/05/15 18:36:42;;;;;;;6.68;1.50;;;;;;;;;;5116516;28;20019;-67
2021/05/15 18:39:10;;;;;;;3.42;1.20;;;;;;;;;;5116741;28;20028;-67
2021/05/15 18:41:36;;;;;;;;;;;;;;;;;;5116805;28;20024;-67
2021/05/15 18:44:03;;;;;;;3.88;1.25;;;;;;;;;;5114952;28;19972;-67
2021/05/15 18:46:29;;;;;;;4.95;1.50;;;;;;;;;;5116620;28;20110;-66
2021/05/15 18:48:55;;;;;;;2.45;0.85;;;;;;;;;;5116281;28;20020;-66
2021/05/15 18:51:21;;;;;;;2.60;1.20;;;;;;;;;;5116272;28;20027;-66
2021/05/15 18:53:47;;;;;;;6.45;1.30;;;;;;;;;;5114910;28;20024;-66
2021/05/15 18:56:14;;;;;;;3.50;1.50;;;;;;;;;;5116225;28;20032;-69
2021/05/15 18:58:40;;;;;;;26.63;2.13;;;;;;;;;;5117032;28;20387;-65
2021/05/15 19:01:08;;;;;;;9.38;1.90;;;;;;;;;;5115494;28;20119;-65
2021/05/15 19:03:35;;;;;;;8.38;1.60;;;;;;;;;;5117071;28;20360;-66
2021/05/15 19:06:04;;;;;;;12.15;2.10;;;;;;;;;;5116987;28;20019;-67
2021/05/15 19:08:30;;;;;;;9.57;1.77;;;;;;;;;;5117438;28;20371;-67
2021/05/15 19:10:56;;;;;;;6.25;1.90;;;;;;;;;;5116916;28;20052;-67
2021/05/15 19:13:22;;;;;;;4.75;1.58;;;;;;;;;;5116815;28;20077;-66
2021/05/15 19:15:48;;;;;;;12.70;1.60;;;;;;;;;;5115576;28;20015;-67
2021/05/15 19:18:14;;;;;;;19.85;2.20;;;;;;;;;;5115951;28;20028;-65
2021/05/15 19:20:40;;;;;;;7.03;2.05;;;;;;;;;;5115259;28;20047;-66
2021/05/15 19:23:06;;;;;;;10.63;2.28;;;;;;;;;;5116324;28;20106;-66
2021/05/15 19:25:33;;;;;;;7.28;2.47;;;;;;;;;;5116738;28;20532;-70
2021/05/15 19:27:59;;;;;;;3.55;1.48;;;;;;;;;;5116095;28;20027;-66
2021/05/15 19:30:25;;;;;;;6.20;1.80;;;;;;;;;;5116512;28;20029;-69
2021/05/15 19:32:51;;;;;;;6.72;1.67;;;;;;;;;;5115414;28;20030;-69
2021/05/15 19:35:17;;;;;;;5.88;1.40;;;;;;;;;;5106012;22;20045;-67
2021/05/15 19:37:43;;;;;;;7.00;2.17;;;;;;;;;;5074772;28;20024;-68
2021/05/15 19:40:09;;;;;;;6.60;1.35;;;;;;;;;;5073976;28;20028;-66
2021/05/15 19:42:36;;;;;;;10.65;1.50;;;;;;;;;;5074587;28;20395;-66
2021/05/15 19:45:02;;;;;;;9.50;1.20;;;;;;;;;;5073755;28;20024;-66
2021/05/15 19:47:28;;;;;;;9.13;1.50;;;;;;;;;;5074825;28;20029;-66
2021/05/15 19:49:54;;;;;;;8.98;1.40;;;;;;;;;;5073226;28;20560;-66
2021/05/15 19:52:20;;;;;;;8.73;1.60;;;;;;;;;;5073156;28;20090;-66
2021/05/15 19:54:46;;;;;;;8.48;1.33;;;;;;;;;;5074258;28;20028;-66
2021/05/15 19:57:14;;;;;;;10.82;1.35;;;;;;;;;;5074534;28;20032;-66
2021/05/15 19:59:40;;;;;;;9.63;1.42;;;;;;;;;;5073052;28;20023;-66
2021/05/15 20:02:06;;;;;;;5.93;1.45;;;;;;;;;;5074086;28;20411;-66
2021/05/15 20:04:32;;;;;;;8.88;1.80;;;;;;;;;;5074226;28;20021;-66
2021/05/15 20:06:58;;;;;;;4.18;1.30;;;;;;;;;;5074062;28;20016;-66
2021/05/15 20:09:24;;;;;;;7.40;1.20;;;;;;;;;;5074052;28;20024;-66
2021/05/15 20:11:50;;;;;;;3.65;1.30;;;;;;;;;;5074018;28;20055;-66
2021/05/15 20:14:17;;;;;;;3.92;1.10;;;;;;;;;;5073864;28;20419;-66
2021/05/15 20:16:44;;;;;;;7.43;1.20;;;;;;;;;;5073934;28;20024;-66
2021/05/15 20:19:11;;;;;;;9.60;1.50;;;;;;;;;;5074432;28;20028;-65
2021/05/15 20:21:37;;;;;;;4.72;1.30;;;;;;;;;;5073702;28;20111;-66
2021/05/15 20:24:04;;;;;;;7.10;1.23;;;;;;;;;;5073835;28;20101;-66
2021/05/15 20:26:30;;;;;;;11.60;1.20;;;;;;;;;;5073735;28;20555;-66
2021/05/15 20:28:58;;;;;;;5.93;1.90;;;;;;;;;;5073690;28;20031;-65
2021/05/15 20:31:24;;;;;;;2.58;0.90;;;;;;;;;;5073930;28;20016;-66
2021/05/15 20:33:50;;;;;;;3.38;1.25;;;;;;;;;;5073403;28;20036;-66
2021/05/15 20:36:16;;;;;;;4.70;1.00;;;;;;;;;;5072354;28;20032;-65
2021/05/15 20:38:42;;;;;;;3.00;0.90;;;;;;;;;;5073791;28;20504;-66
2021/05/15 20:41:08;;;;;;;6.85;1.23;;;;;;;;;;5072151;28;20043;-66
2021/05/15 20:43:34;;;;;;;2.13;0.80;;;;;;;;;;5072184;28;20055;-66
2021/05/15 20:46:00;;;;;;;1.58;0.93;;;;;;;;;;5073717;28;20056;-66
2021/05/15 20:48:34;;;;;;;6.90;1.40;;;;;;;;;;5073514;28;20027;-66
2021/05/15 20:51:09;;;;;;;2.92;0.90;;;;;;;;;;5074471;28;20364;-66
2021/05/15 20:53:37;;;;;;;3.08;1.13;;;;;;;;;;5073587;28;20055;-66
2021/05/15 20:56:03;;;;;;;2.50;0.82;;;;;;;;;;5071785;28;20028;-65
2021/05/15 20:58:29;;;;;;;4.15;1.15;;;;;;;;;;5073286;28;20028;-66
2021/05/15 21:00:55;;;;;;;2.13;1.20;;;;;;;;;;5073267;28;20028;-66
2021/05/15 21:03:22;;;;;;;4.22;0.98;;;;;;;;;;5073209;28;20020;-66
2021/05/15 21:05:48;;;;;;;2.40;1.07;;;;;;;;;;5071912;28;20386;-66
2021/05/15 21:08:14;;;;;;;3.85;1.02;;;;;;;;;;5071978;28;20036;-65
2021/05/15 21:10:41;;;;;;;1.92;1.02;;;;;;;;;;5073175;28;20024;-65
2021/05/15 21:13:07;;;;;;;1.83;1.02;;;;;;;;;;5073172;28;20036;-66
2021/05/15 21:15:33;;;;;;;4.28;1.17;;;;;;;;;;5073008;28;20032;-66
2021/05/15 21:17:59;;;;;;;2.58;1.08;;;;;;;;;;5071774;28;20043;-66
2021/05/15 21:20:25;;;;;;;1.83;1.00;;;;;;;;;;5071829;28;20020;-66
2021/05/15 21:22:51;;;;;;;5.95;1.30;;;;;;;;;;5072928;28;20032;-66
2021/05/15 21:25:17;;;;;;;7.50;1.20;;;;;;;;;;5072963;28;20087;-66
2021/05/15 21:27:43;;;;;;;2.70;1.10;;;;;;;;;;5071775;28;20442;-66
2021/05/15 21:30:12;;;;;;;1.25;0.90;;;;;;;;;;5072987;28;20122;-65
2021/05/15 21:32:38;;;;;;;1.75;1.10;;;;;;;;;;5073024;28;20024;-66
2021/05/15 21:35:07;;;;;;;1.55;1.00;;;;;;;;;;5072925;28;20095;-66
2021/05/15 21:37:33;;;;;;;2.67;1.25;;;;;;;;;;5072934;28;20020;-66
2021/05/15 21:39:59;;;;;;;2.53;1.10;;;;;;;;;;5072972;28;20434;-66
2021/05/15 21:42:25;;;;;;;3.67;1.10;;;;;;;;;;5072782;28;20032;-65
2021/05/15 21:44:51;;;;;;;2.58;1.00;;;;;;;;;;5071465;28;20131;-65
2021/05/15 21:47:17;;;;;;;2.40;1.10;;;;;;;;;;5073044;28;20059;-66
2021/05/15 21:49:43;;;;;;;1.40;0.90;;;;;;;;;;5072600;28;20070;-66
2021/05/15 21:52:09;;;;;;;1.77;1.00;;;;;;;;;;5072619;28;20414;-66
2021/05/15 21:54:35;;;;;;;2.35;0.90;;;;;;;;;;5072761;28;20384;-66
2021/05/15 21:57:01;;;;;;;11.00;2.00;;;;;;;;;;5072676;28;20032;-66
2021/05/15 21:59:27;;;;;;;2.95;1.35;;;;;;;;;;5072573;28;20503;-65
2021/05/15 22:01:53;;;;;;;7.15;1.20;;;;;;;;;;5072396;28;20029;-66
2021/05/15 22:04:19;;;;;;;11.52;1.20;;;;;;;;;;5072577;28;20387;-66
2021/05/15 22:06:45;;;;;;;16.65;1.35;;;;;;;;;;5072677;28;20028;-66
2021/05/15 22:09:11;;;;;;;9.18;1.25;;;;;;;;;;5073180;28;20028;-66
2021/05/15 22:11:37;;;;;;;10.43;1.80;;;;;;;;;;5076384;28;20036;-65
2021/05/15 22:14:03;;;;;;;6.57;1.38;;;;;;;;;;5076242;28;20100;-66
2021/05/15 22:16:29;;;;;;;7.68;1.17;;;;;;;;;;5076281;28;20032;-66
2021/05/15 22:18:55;;;;;;;4.93;1.40;;;;;;;;;;5076298;28;20031;-66
2021/05/15 22:21:23;;;;;;;12.63;1.33;;;;;;;;;;5076030;28;20097;-66
2021/05/15 22:23:49;;;;;;;15.07;1.33;;;;;;;;;;5076294;28;20016;-66
2021/05/15 22:26:15;;;;;;;5.30;1.20;;;;;;;;;;5076047;28;20032;-66
2021/05/15 22:28:43;;;;;;;13.70;1.42;;;;;;;;;;5076194;28;20024;-66
2021/05/15 22:31:09;;;;;;;;;;;;;;;;;;5076367;28;20044;-66
2021/05/15 22:33:36;;;;;;;6.97;1.25;;;;;;;;;;5075843;28;20279;-66
2021/05/15 22:36:04;;;;;;;8.85;1.23;;;;;;;;;;5075195;28;20028;-66
2021/05/15 22:38:30;;;;;;;;;;;;;;;;;;5074944;28;20028;-66
2021/05/15 22:40:56;;;;;;;4.75;1.30;;;;;;;;;;5075808;28;19927;-66
2021/05/15 22:43:24;;;;;;;4.03;1.10;;;;;;;;;;5075947;28;20025;-66
2021/05/15 22:45:50;;;;;;;7.10;1.10;;;;;;;;;;5075980;28;20077;-66
2021/05/15 22:48:16;;;;;;;4.93;1.20;;;;;;;;;;5075647;28;20104;-66
2021/05/15 22:50:42;;;;;;;7.82;0.90;;;;;;;;;;5075642;28;20030;-67
2021/05/15 22:53:09;;;;;;;6.68;0.88;;;;;;;;;;5075702;28;20028;-66
2021/05/15 22:55:36;;;;;;;4.63;0.90;;;;;;;;;;5075509;28;20032;-66
2021/05/15 22:58:02;;;;;;;4.63;0.90;;;;;;;;;;5074222;28;20484;-66
2021/05/15 23:00:28;;;;;;;7.18;0.98;;;;;;;;;;5075662;28;20074;-66
2021/05/15 23:02:55;;;;;;;2.58;0.70;;;;;;;;;;5075595;28;20029;-67
2021/05/15 23:05:21;;;;;;;2.08;0.70;;;;;;;;;;5074059;28;20081;-67
2021/05/15 23:07:47;;;;;;;1.95;0.70;;;;;;;;;;5074007;28;20029;-66
2021/05/15 23:10:14;;;;;;;7.05;1.38;;;;;;;;;;5075265;28;20027;-66
2021/05/15 23:12:40;;;;;;;5.97;0.80;;;;;;;;;;5075206;28;20033;-66
2021/05/15 23:15:07;;;;;;;5.28;1.00;;;;;;;;;;5075071;28;20040;-66
2021/05/15 23:17:33;;;;;;;3.92;0.93;;;;;;;;;;5073837;28;20032;-66
2021/05/15 23:19:59;;;;;;;1.50;0.73;;;;;;;;;;5074951;28;20063;-66
2021/05/15 23:22:25;;;;;;;3.83;1.10;;;;;;;;;;5075207;28;20059;-66
2021/05/15 23:24:51;;;;;;;3.90;0.80;;;;;;;;;;5074960;28;20060;-66
2021/05/15 23:27:17;;;;;;;1.45;0.65;;;;;;;;;;5073843;28;20372;-66
2021/05/15 23:29:43;;;;;;;4.18;1.30;;;;;;;;;;5074834;28;20024;-66
2021/05/15 23:32:09;;;;;;;2.20;0.80;;;;;;;;;;5074799;28;20066;-66
2021/05/15 23:34:35;;;;;;;1.38;0.70;;;;;;;;;;5074747;28;20484;-66
2021/05/15 23:37:03;;;;;;;5.50;0.70;;;;;;;;;;5074715;28;20063;-67
2021/05/15 23:39:29;;;;;;;3.60;0.60;;;;;;;;;;5073390;28;20035;-66
2021/05/15 23:41:55;;;;;;;3.45;0.80;;;;;;;;;;5073297;28;20036;-66
2021/05/15 23:44:22;;;;;;;2.33;0.60;;;;;;;;;;5074515;28;20023;-66
2021/05/15 23:46:48;;;;;;;2.58;0.52;;;;;;;;;;5074743;28;20020;-66
2021/05/15 23:49:14;;;;;;;3.08;0.75;;;;;;;;;;5074456;28;20487;-66
2021/05/15 23:51:40;;;;;;;1.63;0.75;;;;;;;;;;5074426;28;20031;-66
2021/05/15 23:54:06;;;;;;;4.30;0.60;;;;;;;;;;5074460;28;20028;-66
2021/05/15 23:56:32;;;;;;;1.15;0.70;;;;;;;;;;5074433;28;20025;-66
2021/05/15 23:58:58;;;;;;;2.60;0.85;;;;;;;;;;5072994;28;20070;-66
